createdAt,value
2019-01-13T00:01:59.350Z,5.10
2019-01-13T00:07:03.104Z,5.20
2019-01-13T00:12:07.127Z,5.20
2019-01-13T00:17:10.856Z,5.10
2019-01-13T00:22:14.596Z,5.10
2019-01-13T00:27:18.408Z,5.10
2019-01-13T00:32:22.169Z,5.10
2019-01-13T00:37:25.923Z,5.20
2019-01-13T00:42:29.605Z,5.20
2019-01-13T00:47:33.336Z,5.30
2019-01-13T00:52:37.053Z,5.20
2019-01-13T00:57:40.903Z,5.20
2019-01-13T01:02:44.883Z,5.30
2019-01-13T01:07:50.366Z,5.30
2019-01-13T01:12:54.056Z,5.30
2019-01-13T01:17:57.760Z,5.40
2019-01-13T01:23:01.559Z,5.40
2019-01-13T01:28:05.445Z,5.40
2019-01-13T01:33:09.410Z,5.40
2019-01-13T01:38:13.394Z,5.50
2019-01-13T01:43:17.112Z,5.40
2019-01-13T01:48:20.838Z,5.40
2019-01-13T01:53:24.519Z,5.40
2019-01-13T01:58:28.279Z,5.50
2019-01-13T02:03:31.969Z,5.50
2019-01-13T02:08:35.723Z,5.50
2019-01-13T02:13:39.421Z,5.60
2019-01-13T02:18:43.116Z,5.50
2019-01-13T02:23:46.787Z,5.60
2019-01-13T02:28:50.461Z,5.60
2019-01-13T02:33:54.248Z,5.60
2019-01-13T02:38:58.357Z,5.60
2019-01-13T02:44:02.060Z,5.70
2019-01-13T02:49:05.775Z,5.60
2019-01-13T02:54:09.485Z,5.70
2019-01-13T02:59:13.571Z,5.50
2019-01-13T03:04:17.270Z,5.60
2019-01-13T03:09:21.220Z,5.50
2019-01-13T03:14:25.259Z,5.40
2019-01-13T03:19:28.971Z,5.40
2019-01-13T03:24:32.965Z,5.40
2019-01-13T03:29:36.695Z,5.40
2019-01-13T03:34:40.756Z,5.50
2019-01-13T03:39:44.448Z,5.50
2019-01-13T03:44:48.132Z,5.50
2019-01-13T03:49:51.844Z,5.50
2019-01-13T03:54:55.564Z,5.60
2019-01-13T03:59:59.253Z,5.60
2019-01-13T04:05:02.946Z,5.60
2019-01-13T04:10:07.832Z,5.60
2019-01-13T04:15:47.446Z,5.60
2019-01-13T04:20:51.892Z,5.50
2019-01-13T04:25:55.583Z,5.60
2019-01-13T04:30:59.354Z,5.70
2019-01-13T04:36:03.045Z,5.70
2019-01-13T04:41:06.812Z,5.70
2019-01-13T04:46:10.568Z,5.70
2019-01-13T04:51:14.707Z,5.70
2019-01-13T04:56:18.951Z,5.70
2019-01-13T05:01:22.699Z,5.70
2019-01-13T05:06:26.389Z,5.70
2019-01-13T05:11:30.336Z,5.60
2019-01-13T05:16:34.071Z,5.60
2019-01-13T05:21:38.073Z,5.60
2019-01-13T05:26:42.034Z,5.60
2019-01-13T05:31:45.726Z,5.70
2019-01-13T05:36:49.441Z,5.70
2019-01-13T05:41:52.559Z,5.80
2019-01-13T05:46:56.272Z,5.80
2019-01-13T05:51:59.962Z,5.80
2019-01-13T05:57:03.671Z,5.80
2019-01-13T06:02:07.391Z,5.60
2019-01-13T06:07:11.068Z,5.60
2019-01-13T06:12:14.745Z,5.60
2019-01-13T06:17:18.420Z,5.70
2019-01-13T06:22:22.145Z,5.70
2019-01-13T06:27:25.808Z,5.80
2019-01-13T06:32:29.472Z,5.70
2019-01-13T06:37:33.147Z,5.70
2019-01-13T06:42:36.851Z,5.60
2019-01-13T06:47:40.512Z,5.50
2019-01-13T06:52:44.867Z,5.50
2019-01-13T06:57:48.633Z,5.50
2019-01-13T07:02:52.627Z,5.50
2019-01-13T07:07:56.947Z,5.60
2019-01-13T07:13:00.917Z,5.60
2019-01-13T07:18:04.883Z,5.70
2019-01-13T07:23:08.820Z,5.80
2019-01-13T07:28:12.492Z,5.80
2019-01-13T07:33:16.512Z,5.80
2019-01-13T07:38:20.477Z,6.00
2019-01-13T07:43:24.779Z,6.00
2019-01-13T07:48:28.801Z,6.20
2019-01-13T07:53:32.736Z,6.30
2019-01-13T07:58:36.825Z,6.40
2019-01-13T08:03:40.569Z,6.40
2019-01-13T08:08:44.256Z,6.30
2019-01-13T08:13:47.972Z,6.30
2019-01-13T08:18:51.974Z,6.30
2019-01-13T08:23:55.631Z,6.40
2019-01-13T08:28:59.572Z,6.40
2019-01-13T08:34:03.332Z,6.40
2019-01-13T08:39:08.125Z,6.40
2019-01-13T08:44:12.069Z,6.50
2019-01-13T08:49:15.764Z,6.50
2019-01-13T08:54:19.457Z,6.60
2019-01-13T08:59:23.455Z,6.60
2019-01-13T09:04:27.456Z,6.70
2019-01-13T09:09:31.216Z,6.70
2019-01-13T09:14:35.032Z,6.80
2019-01-13T09:19:38.869Z,6.80
2019-01-13T09:24:42.545Z,6.80
2019-01-13T09:29:46.564Z,6.80
2019-01-13T09:34:50.312Z,6.70
2019-01-13T09:39:53.997Z,6.70
2019-01-13T09:44:57.827Z,6.90
2019-01-13T09:50:01.951Z,6.80
2019-01-13T09:55:06.854Z,6.90
2019-01-13T10:00:20.232Z,7.10
2019-01-13T10:05:24.011Z,7.20
2019-01-13T10:10:27.764Z,7.30
2019-01-13T10:15:31.525Z,7.40
2019-01-13T10:20:36.303Z,7.40
2019-01-13T10:25:40.325Z,7.40
2019-01-13T10:30:44.265Z,7.50
2019-01-13T10:35:47.973Z,7.50
2019-01-13T10:40:51.644Z,7.60
2019-01-13T10:45:55.334Z,7.50
2019-01-13T10:50:59.024Z,7.40
2019-01-13T10:56:02.706Z,7.20
2019-01-13T11:01:06.785Z,7.10
2019-01-13T11:06:11.023Z,7.00
2019-01-13T11:11:14.691Z,6.80
2019-01-13T11:16:18.484Z,6.80
2019-01-13T11:21:22.167Z,6.80
2019-01-13T11:26:25.876Z,6.90
2019-01-13T11:31:29.807Z,6.90
2019-01-13T11:36:33.778Z,7.00
2019-01-13T11:41:37.437Z,7.10
2019-01-13T11:46:43.109Z,7.10
2019-01-13T11:51:46.859Z,7.10
2019-01-13T11:56:50.547Z,7.10
2019-01-13T12:01:54.292Z,7.20
2019-01-13T12:06:58.020Z,7.30
2019-01-13T12:12:01.719Z,7.20
2019-01-13T12:17:05.704Z,7.20
2019-01-13T12:22:09.422Z,7.20
2019-01-13T12:27:13.786Z,7.00
2019-01-13T12:32:17.820Z,6.70
2019-01-13T12:37:22.088Z,6.70
2019-01-13T12:42:27.401Z,6.60
2019-01-13T12:47:32.078Z,6.60
2019-01-13T12:52:36.888Z,6.60
2019-01-13T12:57:40.794Z,6.60
2019-01-13T13:02:45.283Z,6.60
2019-01-13T13:07:49.554Z,6.70
2019-01-13T13:12:54.894Z,6.60
2019-01-13T13:18:01.638Z,6.70
2019-01-13T13:23:05.927Z,6.80
2019-01-13T13:28:09.751Z,6.90
2019-01-13T13:33:13.489Z,6.90
2019-01-13T13:38:17.185Z,6.80
2019-01-13T13:43:30.939Z,6.80
2019-01-13T13:48:34.896Z,6.90
2019-01-13T13:53:38.585Z,6.90
2019-01-13T13:58:42.831Z,6.90
2019-01-13T14:03:46.526Z,7.00
2019-01-13T14:08:50.578Z,7.10
2019-01-13T14:13:54.360Z,7.10
2019-01-13T14:18:58.315Z,7.20
2019-01-13T14:24:02.021Z,7.20
2019-01-13T14:29:06.720Z,7.30
2019-01-13T14:34:10.925Z,7.30
2019-01-13T14:39:14.605Z,7.30
2019-01-13T14:44:18.608Z,7.30
2019-01-13T14:49:22.591Z,7.30
2019-01-13T14:54:26.298Z,7.30
2019-01-13T14:59:30.009Z,7.40
2019-01-13T15:04:33.817Z,7.40
2019-01-13T15:09:37.507Z,7.30
2019-01-13T15:14:41.423Z,7.40
2019-01-13T15:19:45.640Z,7.30
2019-01-13T15:24:49.702Z,7.20
2019-01-13T15:29:53.936Z,7.10
2019-01-13T15:34:57.601Z,7.00
2019-01-13T15:40:01.301Z,7.00
2019-01-13T15:45:06.137Z,7.00
2019-01-13T15:50:13.309Z,6.90
2019-01-13T15:55:17.449Z,6.90
2019-01-13T16:00:23.525Z,6.80
2019-01-13T16:05:27.577Z,6.70
2019-01-13T16:10:31.354Z,6.80
2019-01-13T16:15:35.081Z,6.80
2019-01-13T16:20:42.168Z,6.80
2019-01-13T16:25:45.834Z,6.80
2019-01-13T16:30:49.510Z,6.80
2019-01-13T16:35:53.512Z,6.90
2019-01-13T16:40:57.308Z,7.00
2019-01-13T16:46:01.553Z,7.10
2019-01-13T16:51:05.303Z,7.10
2019-01-13T16:56:09.389Z,7.20
2019-01-13T17:01:13.154Z,7.30
2019-01-13T17:06:17.207Z,7.20
2019-01-13T17:11:21.389Z,7.20
2019-01-13T17:16:25.096Z,7.30
2019-01-13T17:21:29.005Z,7.30
2019-01-13T17:26:32.787Z,7.40
2019-01-13T17:31:36.484Z,7.40
2019-01-13T17:36:40.192Z,7.20
2019-01-13T17:41:43.942Z,7.10
2019-01-13T17:46:47.644Z,7.00
2019-01-13T17:51:51.588Z,7.00
2019-01-13T17:56:55.276Z,7.10
2019-01-13T18:01:58.962Z,7.00
2019-01-13T18:07:02.927Z,7.00
2019-01-13T18:12:06.639Z,7.00
2019-01-13T18:17:10.362Z,7.10
2019-01-13T18:22:14.338Z,7.20
2019-01-13T18:27:18.283Z,7.20
2019-01-13T18:32:22.187Z,7.30
2019-01-13T18:37:25.873Z,7.40
2019-01-13T18:42:30.903Z,7.40
2019-01-13T18:47:35.765Z,7.40
2019-01-13T18:52:42.727Z,7.50
2019-01-13T18:57:46.718Z,7.60
2019-01-13T19:02:51.818Z,7.70
2019-01-13T19:07:55.577Z,7.80
2019-01-13T19:13:04.482Z,7.80
2019-01-13T19:18:08.268Z,7.80
2019-01-13T19:23:19.239Z,7.80
2019-01-13T19:28:23.135Z,7.80
2019-01-13T19:33:27.169Z,7.80
2019-01-13T19:38:31.265Z,7.90
2019-01-13T19:43:35.079Z,7.90
2019-01-13T19:48:38.924Z,8.00
2019-01-13T19:53:42.748Z,8.10
2019-01-13T19:58:47.295Z,8.10
2019-01-13T20:03:52.260Z,8.00
2019-01-13T20:08:56.014Z,7.90
2019-01-13T20:13:59.746Z,8.00
2019-01-13T20:19:03.407Z,8.00
2019-01-13T20:24:07.272Z,7.90
2019-01-13T20:29:11.065Z,7.70
2019-01-13T20:34:14.772Z,7.60
2019-01-13T20:39:18.454Z,7.60
2019-01-13T20:44:22.181Z,7.50
2019-01-13T20:49:26.410Z,7.50
2019-01-13T20:54:30.264Z,7.50
2019-01-13T20:59:50.240Z,7.40
2019-01-13T21:04:54.769Z,7.20
2019-01-13T21:15:37.519Z,7.30
2019-01-13T21:20:42.020Z,7.30
2019-01-13T21:25:45.834Z,7.30
2019-01-13T21:30:49.593Z,7.30
2019-01-13T21:35:53.708Z,7.30
2019-01-13T21:40:57.501Z,7.30
2019-01-13T21:46:02.247Z,7.20
2019-01-13T21:51:06.285Z,7.10
2019-01-13T21:56:09.984Z,7.10
2019-01-13T22:01:13.715Z,7.10
2019-01-13T22:06:17.613Z,7.10
2019-01-13T22:11:21.639Z,7.10
2019-01-13T22:16:29.621Z,7.00
2019-01-13T22:21:43.840Z,6.90
2019-01-13T22:26:47.979Z,7.00
2019-01-13T22:31:51.666Z,6.90
2019-01-13T22:36:55.630Z,7.00
2019-01-13T22:41:59.316Z,7.10
2019-01-13T22:47:05.939Z,7.10
2019-01-13T22:53:21.935Z,7.10
2019-01-13T22:57:24.580Z,7.30
2019-01-13T23:02:28.333Z,7.30
2019-01-13T23:07:32.915Z,7.40
2019-01-13T23:12:36.668Z,7.30
2019-01-13T23:17:40.397Z,7.10
2019-01-13T23:22:44.208Z,7.10
2019-01-13T23:27:47.884Z,7.10
2019-01-13T23:32:51.556Z,7.20
2019-01-13T23:38:05.900Z,7.20
2019-01-13T23:43:09.608Z,7.30
2019-01-13T23:48:13.579Z,7.20
2019-01-13T23:53:17.364Z,7.00
2019-01-13T23:58:21.036Z,7.00
